ARG1009 SAZM-SACO
Flight info
| Callsign | ARG1009 |
|---|---|
| Flight time | N/A |
| Altitude | 38000 |
| Route | ESURO1G ESURO DCT DIL UW15 IRASU UZ113 SIMES SIMES1U |
| Aircraft | B38M/M-SDE1FGHILORVWXY/HB1 |
Departure
| Time | N/A |
|---|---|
| Airport | Ástor Piazzola International Airport (SAZM) |
Arrival
| Time | 2026-05-09 02:42 |
|---|---|
| Airport | Ingeniero Aeronáutico Ambrosio L.V. Taravella International Airport (SACO) |
| Time | Latitude | Longitude | Altitude | Speed | Heading |
|---|---|---|---|---|---|
| 2026-05-09 01:42 | -36.90148 | -58.90908 | 32673 ft | 449 kts | 314° |
| 2026-05-09 01:42 | -36.87895 | -58.93608 | 32964 ft | 449 kts | 314° |
| 2026-05-09 01:43 | -36.85646 | -58.96300 | 33309 ft | 448 kts | 314° |
| 2026-05-09 01:43 | -36.83397 | -58.98979 | 33676 ft | 446 kts | 314° |
| 2026-05-09 01:43 | -36.81162 | -59.01664 | 33920 ft | 446 kts | 314° |
| 2026-05-09 01:43 | -36.78921 | -59.04342 | 34107 ft | 448 kts | 314° |
| 2026-05-09 01:44 | -36.76665 | -59.07037 | 34297 ft | 449 kts | 314° |
| 2026-05-09 01:44 | -36.74414 | -59.09722 | 34592 ft | 448 kts | 314° |
| 2026-05-09 01:44 | -36.72156 | -59.12411 | 34784 ft | 449 kts | 314° |
| 2026-05-09 01:44 | -36.69899 | -59.15100 | 34996 ft | 449 kts | 314° |
| 2026-05-09 01:45 | -36.67644 | -59.17782 | 35303 ft | 447 kts | 314° |
| 2026-05-09 01:45 | -36.65395 | -59.20453 | 35555 ft | 447 kts | 314° |
| 2026-05-09 01:45 | -36.63147 | -59.23127 | 35756 ft | 447 kts | 315° |
| 2026-05-09 01:45 | -36.60911 | -59.25800 | 35885 ft | 449 kts | 315° |
| 2026-05-09 01:46 | -36.58642 | -59.28481 | 36111 ft | 449 kts | 315° |
| 2026-05-09 01:46 | -36.56382 | -59.31146 | 36398 ft | 447 kts | 314° |
| 2026-05-09 01:46 | -36.54129 | -59.33810 | 36600 ft | 447 kts | 314° |
| 2026-05-09 01:46 | -36.51896 | -59.36449 | 36719 ft | 449 kts | 315° |
| 2026-05-09 01:47 | -36.49630 | -59.39127 | 36846 ft | 451 kts | 315° |
| 2026-05-09 01:47 | -36.47343 | -59.41812 | 36963 ft | 452 kts | 315° |
| 2026-05-09 01:47 | -36.45066 | -59.44508 | 37167 ft | 452 kts | 315° |
| 2026-05-09 01:47 | -36.42792 | -59.47193 | 37365 ft | 452 kts | 315° |
| 2026-05-09 01:48 | -36.40515 | -59.49874 | 37644 ft | 449 kts | 315° |
| 2026-05-09 01:48 | -36.38241 | -59.52533 | 37783 ft | 449 kts | 315° |
| 2026-05-09 01:48 | -36.33729 | -59.57852 | 37753 ft | 445 kts | 315° |
| 2026-05-09 01:49 | -36.29234 | -59.63126 | 37776 ft | 450 kts | 315° |
| 2026-05-09 01:49 | -36.23180 | -59.70209 | 37777 ft | 446 kts | 315° |
| 2026-05-09 01:50 | -36.14312 | -59.80583 | 37806 ft | 447 kts | 315° |
| 2026-05-09 01:50 | -36.09668 | -59.85979 | 37817 ft | 450 kts | 315° |
| 2026-05-09 01:51 | -36.04839 | -59.91613 | 37826 ft | 447 kts | 316° |
| 2026-05-09 01:51 | -36.00271 | -59.96900 | 37857 ft | 451 kts | 315° |
| 2026-05-09 01:52 | -35.95695 | -60.02196 | 37809 ft | 451 kts | 315° |
| 2026-05-09 01:52 | -35.89477 | -60.09374 | 37846 ft | 452 kts | 315° |
| 2026-05-09 01:53 | -35.84953 | -60.14609 | 37828 ft | 447 kts | 315° |
| 2026-05-09 01:53 | -35.78787 | -60.21692 | 37882 ft | 451 kts | 315° |
| 2026-05-09 01:54 | -35.74160 | -60.26911 | 37840 ft | 449 kts | 314° |
| 2026-05-09 01:54 | -35.69656 | -60.32186 | 37857 ft | 448 kts | 315° |
| 2026-05-09 01:55 | -35.63487 | -60.39152 | 37837 ft | 450 kts | 315° |
| 2026-05-09 01:55 | -35.57528 | -60.46069 | 37855 ft | 452 kts | 316° |
| 2026-05-09 01:56 | -35.50781 | -60.53764 | 37866 ft | 450 kts | 317° |
| 2026-05-09 01:56 | -35.46160 | -60.59010 | 37849 ft | 453 kts | 316° |
| 2026-05-09 01:57 | -35.41567 | -60.64248 | 37844 ft | 453 kts | 315° |
| 2026-05-09 01:57 | -35.36104 | -60.70454 | 37880 ft | 453 kts | 316° |
| 2026-05-09 01:58 | -35.28683 | -60.78817 | 37902 ft | 453 kts | 314° |
| 2026-05-09 01:58 | -35.24019 | -60.84026 | 37876 ft | 454 kts | 315° |
| 2026-05-09 01:59 | -35.19416 | -60.89298 | 37903 ft | 454 kts | 315° |
| 2026-05-09 01:59 | -35.11156 | -60.98588 | 37917 ft | 453 kts | 316° |
| 2026-05-09 02:00 | -35.03082 | -61.07616 | 37926 ft | 455 kts | 316° |
| 2026-05-09 02:00 | -34.98050 | -61.13266 | 37926 ft | 455 kts | 316° |
| 2026-05-09 02:01 | -34.88878 | -61.23513 | 37934 ft | 456 kts | 315° |
| 2026-05-09 02:01 | -34.79519 | -61.33957 | 37934 ft | 455 kts | 316° |
| 2026-05-09 02:02 | -34.70150 | -61.44314 | 37945 ft | 456 kts | 316° |
| 2026-05-09 02:02 | -34.62414 | -61.52878 | 37950 ft | 454 kts | 316° |
| 2026-05-09 02:03 | -34.58471 | -61.57273 | 37954 ft | 455 kts | 316° |
| 2026-05-09 02:03 | -34.53782 | -61.62422 | 37962 ft | 454 kts | 316° |
| 2026-05-09 02:04 | -34.44471 | -61.72695 | 37962 ft | 454 kts | 316° |
| 2026-05-09 02:04 | -34.35139 | -61.82873 | 37965 ft | 453 kts | 316° |
| 2026-05-09 02:05 | -34.26563 | -61.92211 | 37972 ft | 453 kts | 318° |
| 2026-05-09 02:05 | -34.21532 | -61.96778 | 37959 ft | 457 kts | 332° |
| 2026-05-09 02:06 | -34.16036 | -62.00550 | 38011 ft | 454 kts | 324° |
| 2026-05-09 02:07 | -34.07998 | -62.06723 | 37982 ft | 457 kts | 325° |
| 2026-05-09 02:07 | -33.98540 | -62.13879 | 37992 ft | 457 kts | 325° |
| 2026-05-09 02:08 | -33.87820 | -62.21980 | 37993 ft | 457 kts | 324° |
| 2026-05-09 02:08 | -33.80854 | -62.27202 | 37986 ft | 459 kts | 324° |
| 2026-05-09 02:09 | -33.75450 | -62.31308 | 38014 ft | 460 kts | 324° |
| 2026-05-09 02:09 | -33.66171 | -62.38266 | 38006 ft | 458 kts | 324° |
| 2026-05-09 02:10 | -33.55385 | -62.46362 | 38024 ft | 458 kts | 324° |
| 2026-05-09 02:10 | -33.47265 | -62.52403 | 38046 ft | 457 kts | 323° |
| 2026-05-09 02:11 | -33.41907 | -62.56389 | 38058 ft | 458 kts | 323° |
| 2026-05-09 02:11 | -33.34705 | -62.61770 | 38032 ft | 458 kts | 323° |
| 2026-05-09 02:12 | -33.23875 | -62.69835 | 38037 ft | 458 kts | 323° |
| 2026-05-09 02:12 | -33.13041 | -62.77821 | 38037 ft | 459 kts | 324° |
| 2026-05-09 02:13 | -33.03733 | -62.84688 | 38039 ft | 456 kts | 323° |
| 2026-05-09 02:13 | -32.98328 | -62.88666 | 38041 ft | 457 kts | 323° |
| 2026-05-09 02:14 | -32.92935 | -62.92662 | 38037 ft | 456 kts | 323° |
| 2026-05-09 02:14 | -32.87563 | -62.96611 | 38048 ft | 455 kts | 323° |
| 2026-05-09 02:15 | -32.82193 | -63.00550 | 38044 ft | 452 kts | 323° |
| 2026-05-09 02:15 | -32.76832 | -63.04478 | 38043 ft | 453 kts | 323° |
| 2026-05-09 02:16 | -32.71486 | -63.08388 | 38052 ft | 452 kts | 323° |
| 2026-05-09 02:16 | -32.66168 | -63.12273 | 37599 ft | 448 kts | 323° |
| 2026-05-09 02:16 | -32.63509 | -63.14213 | 36921 ft | 448 kts | 322° |
| 2026-05-09 02:17 | -32.60856 | -63.16151 | 36293 ft | 447 kts | 323° |
| 2026-05-09 02:17 | -32.58204 | -63.18080 | 35640 ft | 447 kts | 323° |
| 2026-05-09 02:17 | -32.55549 | -63.20014 | 34931 ft | 449 kts | 323° |
| 2026-05-09 02:17 | -32.52892 | -63.21947 | 34184 ft | 453 kts | 323° |
| 2026-05-09 02:18 | -32.50195 | -63.23908 | 33344 ft | 456 kts | 323° |
| 2026-05-09 02:18 | -32.47499 | -63.25867 | 32663 ft | 453 kts | 322° |
| 2026-05-09 02:18 | -32.44761 | -63.27689 | 32253 ft | 445 kts | 322° |
| 2026-05-09 02:18 | -32.42188 | -63.29651 | 31824 ft | 437 kts | 321° |
| 2026-05-09 02:19 | -32.39622 | -63.31554 | 31267 ft | 434 kts | 321° |
| 2026-05-09 02:19 | -32.37061 | -63.33429 | 30655 ft | 433 kts | 321° |
| 2026-05-09 02:19 | -32.34391 | -63.35138 | 29794 ft | 437 kts | 327° |
| 2026-05-09 02:19 | -32.31689 | -63.36686 | 28740 ft | 431 kts | 326° |
| 2026-05-09 02:20 | -32.29018 | -63.38255 | 27725 ft | 425 kts | 326° |
| 2026-05-09 02:20 | -32.26385 | -63.39818 | 26723 ft | 419 kts | 325° |
| 2026-05-09 02:20 | -32.23809 | -63.41354 | 25949 ft | 410 kts | 325° |
| 2026-05-09 02:20 | -32.21310 | -63.42844 | 25477 ft | 395 kts | 324° |
| 2026-05-09 02:21 | -32.18933 | -63.44262 | 25021 ft | 381 kts | 324° |
| 2026-05-09 02:21 | -32.16609 | -63.45649 | 24568 ft | 369 kts | 323° |
| 2026-05-09 02:21 | -32.14342 | -63.47002 | 24144 ft | 362 kts | 323° |
| 2026-05-09 02:21 | -32.12081 | -63.48351 | 23702 ft | 367 kts | 323° |
| 2026-05-09 02:22 | -32.09798 | -63.49710 | 23170 ft | 370 kts | 324° |
| 2026-05-09 02:22 | -32.07504 | -63.51075 | 22725 ft | 369 kts | 324° |
| 2026-05-09 02:22 | -32.05219 | -63.52436 | 22254 ft | 368 kts | 323° |
| 2026-05-09 02:22 | -32.02921 | -63.53801 | 21861 ft | 368 kts | 324° |
| 2026-05-09 02:23 | -32.00638 | -63.55157 | 21446 ft | 367 kts | 324° |
| 2026-05-09 02:23 | -31.98360 | -63.56510 | 21030 ft | 366 kts | 324° |
| 2026-05-09 02:23 | -31.96092 | -63.57856 | 20618 ft | 364 kts | 324° |
| 2026-05-09 02:23 | -31.93830 | -63.59198 | 20211 ft | 363 kts | 324° |
| 2026-05-09 02:24 | -31.91579 | -63.60533 | 19804 ft | 362 kts | 324° |
| 2026-05-09 02:24 | -31.89335 | -63.61862 | 19414 ft | 360 kts | 324° |
| 2026-05-09 02:24 | -31.87136 | -63.63165 | 19026 ft | 359 kts | 324° |
| 2026-05-09 02:24 | -31.84903 | -63.64486 | 18609 ft | 358 kts | 324° |
| 2026-05-09 02:25 | -31.82680 | -63.65802 | 18212 ft | 358 kts | 324° |
| 2026-05-09 02:25 | -31.80451 | -63.67120 | 17798 ft | 358 kts | 324° |
| 2026-05-09 02:25 | -31.78230 | -63.68432 | 17399 ft | 356 kts | 324° |
| 2026-05-09 02:25 | -31.76027 | -63.69733 | 17010 ft | 354 kts | 324° |
| 2026-05-09 02:26 | -31.73828 | -63.71031 | 16625 ft | 353 kts | 324° |
| 2026-05-09 02:26 | -31.71639 | -63.72323 | 16242 ft | 351 kts | 325° |
| 2026-05-09 02:26 | -31.69464 | -63.73605 | 15861 ft | 349 kts | 325° |
| 2026-05-09 02:26 | -31.67297 | -63.74882 | 15472 ft | 348 kts | 325° |
| 2026-05-09 02:27 | -31.65137 | -63.76155 | 15102 ft | 347 kts | 325° |
| 2026-05-09 02:27 | -31.62991 | -63.77418 | 14714 ft | 346 kts | 325° |
| 2026-05-09 02:27 | -31.60862 | -63.78672 | 14344 ft | 346 kts | 325° |
| 2026-05-09 02:27 | -31.58708 | -63.79938 | 13975 ft | 345 kts | 325° |
| 2026-05-09 02:28 | -31.56568 | -63.81196 | 13560 ft | 343 kts | 325° |
| 2026-05-09 02:28 | -31.54438 | -63.82446 | 13157 ft | 341 kts | 326° |
| 2026-05-09 02:28 | -31.52326 | -63.83686 | 12783 ft | 338 kts | 326° |
| 2026-05-09 02:28 | -31.50236 | -63.84913 | 12413 ft | 334 kts | 326° |
| 2026-05-09 02:29 | -31.48166 | -63.86127 | 12055 ft | 331 kts | 327° |
| 2026-05-09 02:29 | -31.46121 | -63.87327 | 11701 ft | 328 kts | 327° |
| 2026-05-09 02:29 | -31.44089 | -63.88518 | 11345 ft | 325 kts | 328° |
| 2026-05-09 02:29 | -31.42086 | -63.89690 | 10997 ft | 322 kts | 328° |
| 2026-05-09 02:30 | -31.40107 | -63.90850 | 10786 ft | 314 kts | 328° |
| 2026-05-09 02:30 | -31.38188 | -63.91973 | 10629 ft | 302 kts | 328° |
| 2026-05-09 02:30 | -31.36365 | -63.93040 | 10437 ft | 285 kts | 328° |
| 2026-05-09 02:30 | -31.34630 | -63.94054 | 10303 ft | 273 kts | 328° |
| 2026-05-09 02:31 | -31.32954 | -63.95034 | 10156 ft | 265 kts | 328° |
| 2026-05-09 02:31 | -31.31323 | -63.95987 | 10031 ft | 258 kts | 328° |
| 2026-05-09 02:31 | -31.29716 | -63.96926 | 9779 ft | 262 kts | 328° |
| 2026-05-09 02:31 | -31.28067 | -63.97888 | 9473 ft | 267 kts | 329° |
| 2026-05-09 02:32 | -31.26418 | -63.98850 | 9176 ft | 269 kts | 329° |
| 2026-05-09 02:32 | -31.24742 | -63.99827 | 8885 ft | 269 kts | 329° |
| 2026-05-09 02:32 | -31.23067 | -64.00804 | 8604 ft | 269 kts | 330° |
| 2026-05-09 02:32 | -31.21396 | -64.01778 | 8315 ft | 267 kts | 330° |
| 2026-05-09 02:33 | -31.19746 | -64.02739 | 8029 ft | 265 kts | 331° |
| 2026-05-09 02:33 | -31.18104 | -64.03696 | 7748 ft | 263 kts | 331° |
| 2026-05-09 02:33 | -31.16477 | -64.04643 | 7470 ft | 260 kts | 331° |
| 2026-05-09 02:33 | -31.14863 | -64.05583 | 7173 ft | 258 kts | 332° |
| 2026-05-09 02:34 | -31.13269 | -64.06505 | 6999 ft | 251 kts | 332° |
| 2026-05-09 02:34 | -31.11745 | -64.07389 | 6942 ft | 239 kts | 332° |
| 2026-05-09 02:34 | -31.10290 | -64.08239 | 6818 ft | 230 kts | 332° |
| 2026-05-09 02:34 | -31.08975 | -64.09221 | 6596 ft | 221 kts | 313° |
| 2026-05-09 02:35 | -31.08289 | -64.10782 | 6242 ft | 217 kts | 281° |
| 2026-05-09 02:35 | -31.08256 | -64.12517 | 5963 ft | 211 kts | 268° |
| 2026-05-09 02:35 | -31.08314 | -64.14202 | 5726 ft | 204 kts | 267° |
| 2026-05-09 02:35 | -31.08381 | -64.15812 | 5519 ft | 195 kts | 266° |
| 2026-05-09 02:36 | -31.08438 | -64.17339 | 5419 ft | 182 kts | 266° |
| 2026-05-09 02:36 | -31.08490 | -64.18794 | 5372 ft | 178 kts | 262° |
| 2026-05-09 02:36 | -31.08984 | -64.20076 | 5303 ft | 174 kts | 224° |
| 2026-05-09 02:36 | -31.10035 | -64.20732 | 5292 ft | 174 kts | 193° |
| 2026-05-09 02:37 | -31.11252 | -64.20929 | 5216 ft | 179 kts | 185° |
| 2026-05-09 02:37 | -31.12494 | -64.20998 | 4988 ft | 177 kts | 183° |
| 2026-05-09 02:37 | -31.13718 | -64.21030 | 4773 ft | 175 kts | 182° |
| 2026-05-09 02:37 | -31.14933 | -64.21045 | 4537 ft | 173 kts | 181° |
| 2026-05-09 02:38 | -31.16134 | -64.21039 | 4307 ft | 172 kts | 180° |
| 2026-05-09 02:38 | -31.17319 | -64.21024 | 4071 ft | 169 kts | 180° |
| 2026-05-09 02:38 | -31.18474 | -64.21008 | 3860 ft | 167 kts | 180° |
| 2026-05-09 02:38 | -31.19631 | -64.20992 | 3647 ft | 163 kts | 180° |
| 2026-05-09 02:39 | -31.20738 | -64.20977 | 3443 ft | 156 kts | 180° |
| 2026-05-09 02:39 | -31.21777 | -64.20963 | 3254 ft | 140 kts | 181° |
| 2026-05-09 02:39 | -31.22723 | -64.20949 | 3060 ft | 133 kts | 181° |
| 2026-05-09 02:39 | -31.23639 | -64.20937 | 2864 ft | 132 kts | 180° |
| 2026-05-09 02:40 | -31.24571 | -64.20923 | 2677 ft | 135 kts | 180° |
| 2026-05-09 02:40 | -31.25515 | -64.20911 | 2488 ft | 136 kts | 180° |
| 2026-05-09 02:40 | -31.26461 | -64.20896 | 2311 ft | 136 kts | 179° |
| 2026-05-09 02:40 | -31.27405 | -64.20882 | 2093 ft | 134 kts | 178° |
| 2026-05-09 02:41 | -31.28332 | -64.20880 | 1925 ft | 133 kts | 179° |
| 2026-05-09 02:41 | -31.29249 | -64.20866 | 1726 ft | 131 kts | 179° |
| 2026-05-09 02:41 | -31.30114 | -64.20850 | 1622 ft | 113 kts | 179° |
| 2026-05-09 02:41 | -31.30744 | -64.20830 | 1616 ft | 61 kts | 180° |
| 2026-05-09 02:42 | -31.31068 | -64.20835 | 1619 ft | 43 kts | 179° |
| 2026-05-09 02:42 | -31.31319 | -64.20832 | 1619 ft | 28 kts | 179° |
| 2026-05-09 02:42 | -31.31440 | -64.20847 | 1616 ft | 14 kts | 206° |
| 2026-05-09 02:42 | -31.31474 | -64.20939 | 1624 ft | 13 kts | 274° |
| 2026-05-09 02:43 | -31.31471 | -64.20965 | 1618 ft | 0 kts | 276° |
| 2026-05-09 02:43 | -31.31471 | -64.20968 | 1617 ft | 1 kts | 276° |
| 2026-05-09 02:43 | -31.31469 | -64.20997 | 1615 ft | 6 kts | 270° |
| 2026-05-09 02:43 | -31.31486 | -64.21052 | 1622 ft | 8 kts | 225° |
| 2026-05-09 02:44 | -31.31529 | -64.21078 | 1616 ft | 6 kts | 199° |
| 2026-05-09 02:44 | -31.31533 | -64.21083 | 1616 ft | 1 kts | 249° |
| 2026-05-09 02:44 | -31.31545 | -64.21135 | 1617 ft | 7 kts | 256° |
| 2026-05-09 02:44 | -31.31551 | -64.21169 | 1619 ft | 1 kts | 257° |
| 2026-05-09 02:45 | -31.31552 | -64.21171 | 1619 ft | 0 kts | 257° |